CheckWX is a tool to help pilots better visualize weather data.  It is not intended as a substitute for an official pre-flight weather briefing.

01:26:42 UTC

EGBB METAR
Birmingham International Airport
Birmingham, United Kingdom
Current

37 mins ago

EGBB 240050Z VRB02KT 0900 R15/P1500 MIFG NSC 04/04 Q1034
Observed
Feb-24 @ 00:50 UTC
Wind
  • Variable at 2 KTS
Visibility
901 meters
Flight Rules
LIFR
Conditions
Shallow Fog
Cloud Levels
  • Clear skies
Temperature
C / 39°F
Dewpoint
C / 39°F
Humidity
100%
Altimeter
30.53" Hg
Pressure
1033.91 hPa
Previous

1 hour ago

EGBB 240020Z VRB01KT 3800 BR NSC 05/05 Q1034
Observed
Feb-24 @ 00:20 UTC
Wind
  • Variable at 1 KTS
Visibility
3,798 meters
Flight Rules
IFR
Conditions
Mist
Cloud Levels
  • Clear skies
Temperature
C / 41°F
Dewpoint
C / 41°F
Humidity
100%
Altimeter
30.53" Hg
Pressure
1033.91 hPa
Previous

2 hours ago

EGBB 232350Z 17004KT 3500 BR NSC 08/08 Q1034
Observed
Feb-23 @ 23:50 UTC
Wind
  • 170° at 4 KTS
Visibility
3,492 meters
Flight Rules
IFR
Conditions
Mist
Cloud Levels
  • Clear skies
Temperature
C / 46°F
Dewpoint
C / 46°F
Humidity
100%
Altimeter
30.53" Hg
Pressure
1033.91 hPa